sensor_id;sensor_type;location;lat;lon;timestamp;pressure;altitude;pressure_sealevel;temperature;humidity
62779;BME280;48821;48.796;2.396;2023-04-12T00:00:32;100326.63;;;12.83;67.44
62779;BME280;48821;48.796;2.396;2023-04-12T00:01:43;100326.63;;;12.83;67.44
62779;BME280;48821;48.796;2.396;2023-04-12T00:02:54;100328.41;;;12.82;67.37
62779;BME280;48821;48.796;2.396;2023-04-12T00:04:07;100323.13;;;12.82;67.53
62779;BME280;48821;48.796;2.396;2023-04-12T00:05:22;100321.44;;;12.81;67.45
62779;BME280;48821;48.796;2.396;2023-04-12T00:06:39;100317.16;;;12.79;67.48
62779;BME280;48821;48.796;2.396;2023-04-12T00:07:49;100320.63;;;12.79;67.75
62779;BME280;48821;48.796;2.396;2023-04-12T00:09:06;100311.81;;;12.80;67.75
62779;BME280;48821;48.796;2.396;2023-04-12T00:10:21;100312.66;;;12.81;67.56
62779;BME280;48821;48.796;2.396;2023-04-12T00:11:34;100302.97;;;12.81;67.65
62779;BME280;48821;48.796;2.396;2023-04-12T00:12:48;100312.59;;;12.82;67.75
62779;BME280;48821;48.796;2.396;2023-04-12T00:14:01;100300.25;;;12.83;67.38
62779;BME280;48821;48.796;2.396;2023-04-12T00:15:14;100307.22;;;12.84;67.69
62779;BME280;48821;48.796;2.396;2023-04-12T00:16:27;100304.66;;;12.82;68.12
62779;BME280;48821;48.796;2.396;2023-04-12T00:17:41;100300.25;;;12.83;67.71
62779;BME280;48821;48.796;2.396;2023-04-12T00:18:54;100301.13;;;12.83;67.87
62779;BME280;48821;48.796;2.396;2023-04-12T00:20:07;100298.47;;;12.83;67.87
62779;BME280;48821;48.796;2.396;2023-04-12T00:21:24;100290.56;;;12.83;67.84
62779;BME280;48821;48.796;2.396;2023-04-12T00:22:41;100286.97;;;12.85;67.76
62779;BME280;48821;48.796;2.396;2023-04-12T00:23:51;100282.56;;;12.85;68.06
62779;BME280;48821;48.796;2.396;2023-04-12T00:25:02;100285.13;;;12.87;67.96
62779;BME280;48821;48.796;2.396;2023-04-12T00:26:14;100281.56;;;12.88;67.73
62779;BME280;48821;48.796;2.396;2023-04-12T00:27:24;100285.97;;;12.87;67.63
62779;BME280;48821;48.796;2.396;2023-04-12T00:28:35;100283.28;;;12.89;67.80
62779;BME280;48821;48.796;2.396;2023-04-12T00:29:48;100284.09;;;12.89;67.75
62779;BME280;48821;48.796;2.396;2023-04-12T00:31:01;100281.41;;;12.91;67.72
62779;BME280;48821;48.796;2.396;2023-04-12T00:32:14;100275.19;;;12.92;67.96
62779;BME280;48821;48.796;2.396;2023-04-12T00:33:27;100276.91;;;12.93;67.77
62779;BME280;48821;48.796;2.396;2023-04-12T00:34:41;100273.41;;;12.92;67.89
62779;BME280;48821;48.796;2.396;2023-04-12T00:35:54;100260.22;;;12.92;67.77
62779;BME280;48821;48.796;2.396;2023-04-12T00:37:04;100263.72;;;12.93;67.74
62779;BME280;48821;48.796;2.396;2023-04-12T00:38:15;100261.09;;;12.93;67.76
62779;BME280;48821;48.796;2.396;2023-04-12T00:39:29;100258.44;;;12.93;67.79
62779;BME280;48821;48.796;2.396;2023-04-12T00:40:42;100254.84;;;12.94;67.80
62779;BME280;48821;48.796;2.396;2023-04-12T00:41:56;100260.13;;;12.94;67.83
62779;BME280;48821;48.796;2.396;2023-04-12T00:43:10;100246.94;;;12.94;67.59
62779;BME280;48821;48.796;2.396;2023-04-12T00:44:27;100241.66;;;12.94;67.75
62779;BME280;48821;48.796;2.396;2023-04-12T00:45:41;100247.75;;;12.96;67.79
62779;BME280;48821;48.796;2.396;2023-04-12T00:46:54;100244.25;;;12.96;67.95
62779;BME280;48821;48.796;2.396;2023-04-12T00:48:04;100239.91;;;12.94;67.63
62779;BME280;48821;48.796;2.396;2023-04-12T00:49:16;100243.47;;;12.93;67.71
62779;BME280;48821;48.796;2.396;2023-04-12T00:50:29;100235.56;;;12.93;67.57
62779;BME280;48821;48.796;2.396;2023-04-12T00:51:43;100232.06;;;12.93;67.90
62779;BME280;48821;48.796;2.396;2023-04-12T00:52:56;100226.72;;;12.94;67.67
62779;BME280;48821;48.796;2.396;2023-04-12T00:54:11;100222.28;;;12.95;67.86
62779;BME280;48821;48.796;2.396;2023-04-12T00:55:23;100219.66;;;12.95;67.48
62779;BME280;48821;48.796;2.396;2023-04-12T00:56:35;100210.81;;;12.96;67.84
62779;BME280;48821;48.796;2.396;2023-04-12T00:57:50;100203.72;;;12.97;67.58
62779;BME280;48821;48.796;2.396;2023-04-12T00:59:03;100195.00;;;12.96;67.73
62779;BME280;48821;48.796;2.396;2023-04-12T01:00:17;100208.09;;;12.98;67.97
62779;BME280;48821;48.796;2.396;2023-04-12T01:01:30;100202.81;;;12.98;67.73
62779;BME280;48821;48.796;2.396;2023-04-12T01:02:45;100199.31;;;12.97;67.28
62779;BME280;48821;48.796;2.396;2023-04-12T01:03:59;100201.97;;;12.97;67.45
62779;BME280;48821;48.796;2.396;2023-04-12T01:05:10;100197.53;;;12.98;67.64
62779;BME280;48821;48.796;2.396;2023-04-12T01:09:56;100181.63;;;12.99;67.85
62779;BME280;48821;48.796;2.396;2023-04-12T01:11:37;100154.31;;;13.00;67.75
62779;BME280;48821;48.796;2.396;2023-04-12T01:13:01;100154.31;;;13.00;67.90
62779;BME280;48821;48.796;2.396;2023-04-12T01:14:27;100144.63;;;13.01;67.94
62779;BME280;48821;48.796;2.396;2023-04-12T01:15:49;100145.44;;;13.01;67.30
62779;BME280;48821;48.796;2.396;2023-04-12T01:17:10;100147.16;;;13.02;67.81
62779;BME280;48821;48.796;2.396;2023-04-12T01:18:24;100144.53;;;13.02;67.60
62779;BME280;48821;48.796;2.396;2023-04-12T01:19:52;100155.94;;;13.03;68.37
62779;BME280;48821;48.796;2.396;2023-04-12T01:21:18;100143.63;;;13.03;67.58
62779;BME280;48821;48.796;2.396;2023-04-12T01:24:30;100153.31;;;13.03;67.80
62779;BME280;48821;48.796;2.396;2023-04-12T01:26:13;100143.63;;;13.03;67.72
62779;BME280;48821;48.796;2.396;2023-04-12T01:27:47;100140.19;;;13.01;67.95
62779;BME280;48821;48.796;2.396;2023-04-12T01:29:07;100142.00;;;13.01;67.55
62779;BME280;48821;48.796;2.396;2023-04-12T01:30:25;100136.78;;;12.99;67.86
62779;BME280;48821;48.796;2.396;2023-04-12T01:31:48;100136.78;;;12.99;67.63
62779;BME280;48821;48.796;2.396;2023-04-12T01:33:04;100143.88;;;12.99;67.68
62779;BME280;48821;48.796;2.396;2023-04-12T01:34:20;100129.81;;;12.98;67.74
62779;BME280;48821;48.796;2.396;2023-04-12T01:35:36;100129.81;;;12.98;67.64
62779;BME280;48821;48.796;2.396;2023-04-12T01:36:47;100115.66;;;12.99;68.00
62779;BME280;48821;48.796;2.396;2023-04-12T01:37:59;100125.31;;;13.00;67.87
62779;BME280;48821;48.796;2.396;2023-04-12T01:39:13;100112.13;;;13.00;67.76
62779;BME280;48821;48.796;2.396;2023-04-12T01:40:28;100109.38;;;13.02;68.01
62779;BME280;48821;48.796;2.396;2023-04-12T01:41:42;100110.25;;;13.02;67.96
62779;BME280;48821;48.796;2.396;2023-04-12T01:44:20;100103.09;;;13.04;67.64
62779;BME280;48821;48.796;2.396;2023-04-12T01:45:33;100104.81;;;13.05;67.93
62779;BME280;48821;48.796;2.396;2023-04-12T01:46:47;100097.75;;;13.06;67.83
62779;BME280;48821;48.796;2.396;2023-04-12T01:48:01;100096.81;;;13.07;67.82
62779;BME280;48821;48.796;2.396;2023-04-12T01:49:17;100087.97;;;13.08;67.66
62779;BME280;48821;48.796;2.396;2023-04-12T01:52:17;100083.69;;;13.05;67.41
62779;BME280;48821;48.796;2.396;2023-04-12T01:55:15;100074.16;;;13.03;67.85
62779;BME280;48821;48.796;2.396;2023-04-12T01:56:33;100068.03;;;13.02;67.59
62779;BME280;48821;48.796;2.396;2023-04-12T01:57:49;100060.97;;;13.03;68.12
62779;BME280;48821;48.796;2.396;2023-04-12T01:59:02;100072.38;;;13.03;67.97
62779;BME280;48821;48.796;2.396;2023-04-12T02:00:17;100073.31;;;13.02;67.76
62779;BME280;48821;48.796;2.396;2023-04-12T02:01:28;100065.41;;;13.02;67.79
62779;BME280;48821;48.796;2.396;2023-04-12T02:02:42;100058.34;;;13.03;67.81
62779;BME280;48821;48.796;2.396;2023-04-12T02:03:57;100057.47;;;13.02;68.00
62779;BME280;48821;48.796;2.396;2023-04-12T02:05:12;100056.63;;;13.02;67.72
62779;BME280;48821;48.796;2.396;2023-04-12T02:06:26;100054.94;;;13.01;67.78
62779;BME280;48821;48.796;2.396;2023-04-12T02:07:40;100057.63;;;12.99;68.00
62779;BME280;48821;48.796;2.396;2023-04-12T02:09:01;100050.69;;;12.98;68.01
62779;BME280;48821;48.796;2.396;2023-04-12T02:10:15;100045.41;;;12.98;67.77
62779;BME280;48821;48.796;2.396;2023-04-12T02:11:28;100046.25;;;12.99;68.27
62779;BME280;48821;48.796;2.396;2023-04-12T02:12:41;100053.22;;;13.00;68.07
62779;BME280;48821;48.796;2.396;2023-04-12T02:13:55;100049.66;;;13.01;68.08
62779;BME280;48821;48.796;2.396;2023-04-12T02:15:05;100049.56;;;13.02;68.09
62779;BME280;48821;48.796;2.396;2023-04-12T02:16:20;100038.09;;;13.03;67.93
62779;BME280;48821;48.796;2.396;2023-04-12T02:17:34;100032.81;;;13.03;67.94
62779;BME280;48821;48.796;2.396;2023-04-12T02:18:49;100029.22;;;13.04;68.05
62779;BME280;48821;48.796;2.396;2023-04-12T02:20:03;100024.81;;;13.05;68.67
62779;BME280;48821;48.796;2.396;2023-04-12T02:21:21;100019.63;;;13.03;68.15
62779;BME280;48821;48.796;2.396;2023-04-12T02:22:34;100014.25;;;13.05;68.17
62779;BME280;48821;48.796;2.396;2023-04-12T02:23:48;100020.38;;;13.05;68.37
62779;BME280;48821;48.796;2.396;2023-04-12T02:25:03;100007.09;;;13.07;68.16
62779;BME280;48821;48.796;2.396;2023-04-12T02:26:17;100003.59;;;13.07;68.04
62779;BME280;48821;48.796;2.396;2023-04-12T02:27:30;100003.53;;;13.08;68.42
62779;BME280;48821;48.796;2.396;2023-04-12T02:28:44;100002.69;;;13.08;68.30
62779;BME280;48821;48.796;2.396;2023-04-12T02:29:58;100004.56;;;13.05;68.35
62779;BME280;48821;48.796;2.396;2023-04-12T02:31:11;99997.56;;;13.04;69.24
62779;BME280;48821;48.796;2.396;2023-04-12T02:32:25;99993.25;;;13.03;68.50
62779;BME280;48821;48.796;2.396;2023-04-12T02:33:38;99993.25;;;13.03;68.62
62779;BME280;48821;48.796;2.396;2023-04-12T02:34:53;99980.06;;;13.03;68.36
62779;BME280;48821;48.796;2.396;2023-04-12T02:36:08;99984.31;;;13.06;68.83
62779;BME280;48821;48.796;2.396;2023-04-12T02:37:19;99980.72;;;13.07;68.32
62779;BME280;48821;48.796;2.396;2023-04-12T02:38:36;99973.66;;;13.08;68.54
62779;BME280;48821;48.796;2.396;2023-04-12T02:39:49;99974.41;;;13.10;68.56
62779;BME280;48821;48.796;2.396;2023-04-12T02:41:03;99983.19;;;13.10;69.02
62779;BME280;48821;48.796;2.396;2023-04-12T02:42:16;99974.41;;;13.10;68.56
62779;BME280;48821;48.796;2.396;2023-04-12T02:43:29;99973.50;;;13.11;68.85
62779;BME280;48821;48.796;2.396;2023-04-12T02:44:42;99963.88;;;13.10;68.70
62779;BME280;48821;48.796;2.396;2023-04-12T02:45:59;99969.16;;;13.10;68.70
62779;BME280;48821;48.796;2.396;2023-04-12T02:47:13;99960.31;;;13.11;68.72
62779;BME280;48821;48.796;2.396;2023-04-12T02:48:26;99963.78;;;13.11;68.56
62779;BME280;48821;48.796;2.396;2023-04-12T02:49:39;99962.94;;;13.11;68.77
62779;BME280;48821;48.796;2.396;2023-04-12T02:50:53;99963.88;;;13.10;68.77
62779;BME280;48821;48.796;2.396;2023-04-12T02:52:06;99956.72;;;13.12;68.71
62779;BME280;48821;48.796;2.396;2023-04-12T02:53:19;99946.16;;;13.12;68.74
62779;BME280;48821;48.796;2.396;2023-04-12T02:54:33;99948.72;;;13.13;68.87
62779;BME280;48821;48.796;2.396;2023-04-12T02:55:46;99944.28;;;13.14;68.72
62779;BME280;48821;48.796;2.396;2023-04-12T02:57:00;99946.84;;;13.15;68.84
62779;BME280;48821;48.796;2.396;2023-04-12T02:58:13;99945.13;;;13.14;68.87
62779;BME280;48821;48.796;2.396;2023-04-12T02:59:26;99938.06;;;13.15;69.12
62779;BME280;48821;48.796;2.396;2023-04-12T03:00:40;99935.34;;;13.16;68.86
62779;BME280;48821;48.796;2.396;2023-04-12T03:01:55;99930.91;;;13.17;68.84
62779;BME280;48821;48.796;2.396;2023-04-12T03:03:08;99926.50;;;13.18;68.78
62779;BME280;48821;48.796;2.396;2023-04-12T03:04:22;99940.56;;;13.18;69.07
62779;BME280;48821;48.796;2.396;2023-04-12T03:05:42;99933.56;;;13.17;68.97
62779;BME280;48821;48.796;2.396;2023-04-12T03:06:59;99929.13;;;13.18;69.05
62779;BME280;48821;48.796;2.396;2023-04-12T03:08:09;99936.97;;;13.19;68.91
62779;BME280;48821;48.796;2.396;2023-04-12T03:09:20;99927.25;;;13.20;69.55
62779;BME280;48821;48.796;2.396;2023-04-12T03:10:33;99917.56;;;13.20;69.19
62779;BME280;48821;48.796;2.396;2023-04-12T03:11:47;99926.34;;;13.21;69.33
62779;BME280;48821;48.796;2.396;2023-04-12T03:13:00;99913.91;;;13.23;69.24
62779;BME280;48821;48.796;2.396;2023-04-12T03:14:13;99914.75;;;13.23;69.24
62779;BME280;48821;48.796;2.396;2023-04-12T03:15:26;99911.16;;;13.24;69.37
62779;BME280;48821;48.796;2.396;2023-04-12T03:16:41;99905.97;;;13.23;69.29
62779;BME280;48821;48.796;2.396;2023-04-12T03:17:55;99912.03;;;13.25;69.25
62779;BME280;48821;48.796;2.396;2023-04-12T03:19:08;99911.09;;;13.26;69.57
62779;BME280;48821;48.796;2.396;2023-04-12T03:20:21;99908.34;;;13.27;69.18
62779;BME280;48821;48.796;2.396;2023-04-12T03:21:37;99907.41;;;13.28;69.25
62779;BME280;48821;48.796;2.396;2023-04-12T03:22:47;99899.41;;;13.30;69.54
62779;BME280;48821;48.796;2.396;2023-04-12T03:23:58;99900.25;;;13.31;69.31
62779;BME280;48821;48.796;2.396;2023-04-12T03:25:11;99894.03;;;13.32;69.31
62779;BME280;48821;48.796;2.396;2023-04-12T03:26:25;99887.81;;;13.33;69.56
62779;BME280;48821;48.796;2.396;2023-04-12T03:27:38;99893.00;;;13.34;69.06
62779;BME280;48821;48.796;2.396;2023-04-12T03:29:00;99888.59;;;13.35;68.99
62779;BME280;48821;48.796;2.396;2023-04-12T03:30:13;99879.72;;;13.36;69.60
62779;BME280;48821;48.796;2.396;2023-04-12T03:31:27;99881.41;;;13.37;69.24
62779;BME280;48821;48.796;2.396;2023-04-12T03:32:38;99871.63;;;13.39;69.37
62779;BME280;48821;48.796;2.396;2023-04-12T03:33:52;99879.47;;;13.41;69.50
62779;BME280;48821;48.796;2.396;2023-04-12T03:35:06;99872.38;;;13.41;69.52
62779;BME280;48821;48.796;2.396;2023-04-12T03:36:22;99879.38;;;13.42;69.58
62779;BME280;48821;48.796;2.396;2023-04-12T03:37:36;99885.50;;;13.43;69.47
62779;BME280;48821;48.796;2.396;2023-04-12T03:38:49;99883.63;;;13.45;69.57
62779;BME280;48821;48.796;2.396;2023-04-12T03:40:03;99899.44;;;13.45;69.56
62779;BME280;48821;48.796;2.396;2023-04-12T03:41:16;99887.00;;;13.47;69.61
62779;BME280;48821;48.796;2.396;2023-04-12T03:42:29;99893.22;;;13.46;69.41
62779;BME280;48821;48.796;2.396;2023-04-12T03:43:42;99893.16;;;13.47;69.40
62779;BME280;48821;48.796;2.396;2023-04-12T03:44:55;99897.56;;;13.47;69.43
62779;BME280;48821;48.796;2.396;2023-04-12T03:46:09;99900.09;;;13.48;69.50
62779;BME280;48821;48.796;2.396;2023-04-12T03:47:22;99901.81;;;13.49;69.64
62779;BME280;48821;48.796;2.396;2023-04-12T03:48:35;99908.88;;;13.49;69.81
62779;BME280;48821;48.796;2.396;2023-04-12T03:49:49;99915.03;;;13.49;69.77
62779;BME280;48821;48.796;2.396;2023-04-12T03:51:03;99918.50;;;13.50;69.70
62779;BME280;48821;48.796;2.396;2023-04-12T03:52:20;99927.34;;;13.49;70.08
62779;BME280;48821;48.796;2.396;2023-04-12T03:53:33;99923.09;;;13.46;69.46
62779;BME280;48821;48.796;2.396;2023-04-12T03:54:46;99921.50;;;13.44;69.30
62779;BME280;48821;48.796;2.396;2023-04-12T03:56:00;99911.97;;;13.41;69.08
62779;BME280;48821;48.796;2.396;2023-04-12T03:57:13;99908.50;;;13.41;69.04
62779;BME280;48821;48.796;2.396;2023-04-12T03:58:26;99904.25;;;13.38;68.44
62779;BME280;48821;48.796;2.396;2023-04-12T03:59:39;99905.16;;;13.37;68.53
62779;BME280;48821;48.796;2.396;2023-04-12T04:00:52;99908.84;;;13.34;68.90
62779;BME280;48821;48.796;2.396;2023-04-12T04:02:06;99907.97;;;13.34;68.32
62779;BME280;48821;48.796;2.396;2023-04-12T04:03:19;99908.19;;;13.31;68.28
62779;BME280;48821;48.796;2.396;2023-04-12T04:04:34;99909.22;;;13.28;67.96
62779;BME280;48821;48.796;2.396;2023-04-12T04:05:49;99919.06;;;13.24;67.89
62779;BME280;48821;48.796;2.396;2023-04-12T04:07:02;99913.03;;;13.22;67.95
62779;BME280;48821;48.796;2.396;2023-04-12T04:08:15;99910.56;;;13.19;67.97
62779;BME280;48821;48.796;2.396;2023-04-12T04:09:29;99913.31;;;13.18;68.23
62779;BME280;48821;48.796;2.396;2023-04-12T04:10:42;99914.22;;;13.16;67.79
62779;BME280;48821;48.796;2.396;2023-04-12T04:11:55;99907.34;;;13.14;67.91
62779;BME280;48821;48.796;2.396;2023-04-12T04:13:08;99909.16;;;13.13;67.97
62779;BME280;48821;48.796;2.396;2023-04-12T04:14:21;99915.25;;;13.14;68.07
62779;BME280;48821;48.796;2.396;2023-04-12T04:15:34;99907.34;;;13.14;68.08
62779;BME280;48821;48.796;2.396;2023-04-12T04:16:48;99901.13;;;13.15;67.96
62779;BME280;48821;48.796;2.396;2023-04-12T04:18:01;99902.06;;;13.14;68.33
62779;BME280;48821;48.796;2.396;2023-04-12T04:19:14;99897.66;;;13.14;68.03
62779;BME280;48821;48.796;2.396;2023-04-12T04:20:28;99898.59;;;13.13;68.25
62779;BME280;48821;48.796;2.396;2023-04-12T04:21:41;99898.59;;;13.13;68.17
62779;BME280;48821;48.796;2.396;2023-04-12T04:22:54;99895.97;;;13.13;68.13
62779;BME280;48821;48.796;2.396;2023-04-12T04:24:08;99902.91;;;13.14;68.05
62779;BME280;48821;48.796;2.396;2023-04-12T04:25:23;99888.97;;;13.12;67.87
62779;BME280;48821;48.796;2.396;2023-04-12T04:26:41;99888.97;;;13.12;67.99
62779;BME280;48821;48.796;2.396;2023-04-12T04:27:55;99892.47;;;13.13;68.06
62779;BME280;48821;48.796;2.396;2023-04-12T04:29:10;99900.44;;;13.11;68.21
62779;BME280;48821;48.796;2.396;2023-04-12T04:30:24;99898.66;;;13.12;68.14
62779;BME280;48821;48.796;2.396;2023-04-12T04:31:38;99898.66;;;13.12;68.07
62779;BME280;48821;48.796;2.396;2023-04-12T04:32:51;99893.41;;;13.12;68.01
62779;BME280;48821;48.796;2.396;2023-04-12T04:34:05;99900.44;;;13.11;67.56
62779;BME280;48821;48.796;2.396;2023-04-12T04:35:18;99897.00;;;13.11;68.11
62779;BME280;48821;48.796;2.396;2023-04-12T04:36:33;99895.28;;;13.10;68.02
62779;BME280;48821;48.796;2.396;2023-04-12T04:37:47;99896.22;;;13.09;67.82
62779;BME280;48821;48.796;2.396;2023-04-12T04:39:00;99904.16;;;13.09;68.08
62779;BME280;48821;48.796;2.396;2023-04-12T04:40:14;99896.22;;;13.09;68.08
62779;BME280;48821;48.796;2.396;2023-04-12T04:41:29;99901.50;;;13.09;68.16
62779;BME280;48821;48.796;2.396;2023-04-12T04:42:46;99898.88;;;13.09;68.43
62779;BME280;48821;48.796;2.396;2023-04-12T04:44:06;99907.72;;;13.08;67.99
62779;BME280;48821;48.796;2.396;2023-04-12T04:45:21;99901.56;;;13.07;68.14
62779;BME280;48821;48.796;2.396;2023-04-12T04:46:38;99903.34;;;13.07;68.17
62779;BME280;48821;48.796;2.396;2023-04-12T04:47:55;99899.91;;;13.06;68.01
62779;BME280;48821;48.796;2.396;2023-04-12T04:49:08;99904.31;;;13.05;67.88
62779;BME280;48821;48.796;2.396;2023-04-12T04:50:22;99903.34;;;13.07;68.12
62779;BME280;48821;48.796;2.396;2023-04-12T04:51:36;99913.00;;;13.08;67.93
62779;BME280;48821;48.796;2.396;2023-04-12T04:52:50;99902.53;;;13.06;68.36
62779;BME280;48821;48.796;2.396;2023-04-12T04:54:03;99902.53;;;13.06;67.89
62779;BME280;48821;48.796;2.396;2023-04-12T04:55:17;99904.31;;;13.05;67.88
62779;BME280;48821;48.796;2.396;2023-04-12T04:56:30;99893.81;;;13.04;67.85
62779;BME280;48821;48.796;2.396;2023-04-12T04:57:44;99889.50;;;13.03;67.92
62779;BME280;48821;48.796;2.396;2023-04-12T04:58:57;99893.94;;;13.02;67.74
62779;BME280;48821;48.796;2.396;2023-04-12T05:00:11;99899.19;;;13.02;68.25
62779;BME280;48821;48.796;2.396;2023-04-12T05:01:28;99892.22;;;13.01;67.89
62779;BME280;48821;48.796;2.396;2023-04-12T05:02:41;99893.16;;;13.00;67.88
62779;BME280;48821;48.796;2.396;2023-04-12T05:03:55;99895.81;;;13.00;67.97
62779;BME280;48821;48.796;2.396;2023-04-12T05:05:11;99897.59;;;13.00;67.86
62779;BME280;48821;48.796;2.396;2023-04-12T05:06:25;99894.94;;;13.00;68.37
62779;BME280;48821;48.796;2.396;2023-04-12T05:07:39;99906.34;;;13.00;68.06
62779;BME280;48821;48.796;2.396;2023-04-12T05:08:52;99891.47;;;12.99;68.25
62779;BME280;48821;48.796;2.396;2023-04-12T05:10:06;99898.44;;;13.00;68.20
62779;BME280;48821;48.796;2.396;2023-04-12T05:11:19;99887.03;;;13.00;68.32
62779;BME280;48821;48.796;2.396;2023-04-12T05:12:33;99879.13;;;13.00;68.32
62779;BME280;48821;48.796;2.396;2023-04-12T05:13:46;99873.84;;;13.00;68.48
62779;BME280;48821;48.796;2.396;2023-04-12T05:14:59;99860.66;;;13.00;68.45
62779;BME280;48821;48.796;2.396;2023-04-12T05:16:13;99862.44;;;12.99;68.32
62779;BME280;48821;48.796;2.396;2023-04-12T05:17:26;99873.84;;;13.00;68.51
62779;BME280;48821;48.796;2.396;2023-04-12T05:18:39;99877.44;;;12.99;68.58
62779;BME280;48821;48.796;2.396;2023-04-12T05:19:53;99879.13;;;13.00;68.68
62779;BME280;48821;48.796;2.396;2023-04-12T05:21:06;99875.63;;;12.99;68.59
62779;BME280;48821;48.796;2.396;2023-04-12T05:22:20;99867.72;;;12.99;68.66
62779;BME280;48821;48.796;2.396;2023-04-12T05:23:35;99860.66;;;13.00;68.85
62779;BME280;48821;48.796;2.396;2023-04-12T05:24:49;99866.78;;;13.00;68.62
62779;BME280;48821;48.796;2.396;2023-04-12T05:26:03;99870.34;;;12.99;68.68
62779;BME280;48821;48.796;2.396;2023-04-12T05:27:16;99874.81;;;12.99;68.63
62779;BME280;48821;48.796;2.396;2023-04-12T05:28:30;99883.53;;;12.99;68.95
62779;BME280;48821;48.796;2.396;2023-04-12T05:29:44;99894.09;;;12.99;68.69
62779;BME280;48821;48.796;2.396;2023-04-12T05:30:57;99898.53;;;12.99;68.67
62779;BME280;48821;48.796;2.396;2023-04-12T05:32:10;99902.88;;;13.00;68.63
62779;BME280;48821;48.796;2.396;2023-04-12T05:33:24;99902.97;;;12.98;68.51
62779;BME280;48821;48.796;2.396;2023-04-12T05:34:37;99900.31;;;12.98;68.62
62779;BME280;48821;48.796;2.396;2023-04-12T05:35:50;99908.25;;;12.98;68.69
62779;BME280;48821;48.796;2.396;2023-04-12T05:37:03;99906.53;;;12.97;68.68
62779;BME280;48821;48.796;2.396;2023-04-12T05:38:17;99914.44;;;12.97;68.65
62779;BME280;48821;48.796;2.396;2023-04-12T05:39:30;99910.94;;;12.97;68.73
62779;BME280;48821;48.796;2.396;2023-04-12T05:40:43;99911.81;;;12.97;68.67
62779;BME280;48821;48.796;2.396;2023-04-12T05:41:56;99907.47;;;12.96;68.86
62779;BME280;48821;48.796;2.396;2023-04-12T05:43:10;99910.94;;;12.97;68.37
62779;BME280;48821;48.796;2.396;2023-04-12T05:44:26;99909.25;;;12.96;68.66
62779;BME280;48821;48.796;2.396;2023-04-12T05:45:39;99922.50;;;12.94;68.38
62779;BME280;48821;48.796;2.396;2023-04-12T05:46:55;99919.97;;;12.92;68.42
62779;BME280;48821;48.796;2.396;2023-04-12T05:48:09;99921.75;;;12.92;68.32
62779;BME280;48821;48.796;2.396;2023-04-12T05:49:22;99928.91;;;12.90;68.55
62779;BME280;48821;48.796;2.396;2023-04-12T05:50:35;99928.03;;;12.89;68.48
62779;BME280;48821;48.796;2.396;2023-04-12T05:51:48;99924.75;;;12.86;68.82
62779;BME280;48821;48.796;2.396;2023-04-12T05:53:01;99931.13;;;12.81;68.27
62779;BME280;48821;48.796;2.396;2023-04-12T05:54:15;99935.81;;;12.76;67.98
62779;BME280;48821;48.796;2.396;2023-04-12T05:55:30;99943.13;;;12.71;67.41
62779;BME280;48821;48.796;2.396;2023-04-12T05:56:44;99966.25;;;12.66;67.11
62779;BME280;48821;48.796;2.396;2023-04-12T05:57:57;99965.66;;;12.60;66.61
62779;BME280;48821;48.796;2.396;2023-04-12T05:59:10;99975.75;;;12.52;66.23
62779;BME280;48821;48.796;2.396;2023-04-12T06:00:24;99970.97;;;12.43;65.27
62779;BME280;48821;48.796;2.396;2023-04-12T06:01:38;99983.72;;;12.34;65.86
62779;BME280;48821;48.796;2.396;2023-04-12T06:02:54;99993.03;;;12.24;65.26
62779;BME280;48821;48.796;2.396;2023-04-12T06:04:09;99993.50;;;12.14;65.02
62779;BME280;48821;48.796;2.396;2023-04-12T06:05:22;99991.28;;;12.05;65.53
62779;BME280;48821;48.796;2.396;2023-04-12T06:06:35;99990.75;;;11.98;65.77
62779;BME280;48821;48.796;2.396;2023-04-12T06:07:48;99989.31;;;11.92;65.47
62779;BME280;48821;48.796;2.396;2023-04-12T06:09:02;99983.56;;;11.84;65.87
62779;BME280;48821;48.796;2.396;2023-04-12T06:10:16;99994.34;;;11.79;66.02
62779;BME280;48821;48.796;2.396;2023-04-12T06:11:30;99990.22;;;11.74;66.03
62779;BME280;48821;48.796;2.396;2023-04-12T06:12:46;99981.69;;;11.68;66.05
62779;BME280;48821;48.796;2.396;2023-04-12T06:13:59;99975.91;;;11.62;66.01
62779;BME280;48821;48.796;2.396;2023-04-12T06:15:13;99982.25;;;11.57;65.77
62779;BME280;48821;48.796;2.396;2023-04-12T06:16:26;99984.34;;;11.51;66.03
62779;BME280;48821;48.796;2.396;2023-04-12T06:17:39;99992.50;;;11.44;66.57
62779;BME280;48821;48.796;2.396;2023-04-12T06:18:53;99977.81;;;11.40;66.37
62779;BME280;48821;48.796;2.396;2023-04-12T06:20:06;99975.41;;;11.35;66.46
62779;BME280;48821;48.796;2.396;2023-04-12T06:21:21;99977.31;;;11.32;66.77
62779;BME280;48821;48.796;2.396;2023-04-12T06:22:35;99973.91;;;11.30;66.99
62779;BME280;48821;48.796;2.396;2023-04-12T06:23:49;99976.78;;;11.25;67.62
62779;BME280;48821;48.796;2.396;2023-04-12T06:25:03;99978.69;;;11.21;67.55
62779;BME280;48821;48.796;2.396;2023-04-12T06:26:16;99985.81;;;11.19;67.53
62779;BME280;48821;48.796;2.396;2023-04-12T06:27:30;99987.66;;;11.17;67.53
62779;BME280;48821;48.796;2.396;2023-04-12T06:28:43;99987.66;;;11.17;67.64
62779;BME280;48821;48.796;2.396;2023-04-12T06:29:56;99984.25;;;11.15;67.65
62779;BME280;48821;48.796;2.396;2023-04-12T06:31:09;99991.19;;;11.16;67.89
62779;BME280;48821;48.796;2.396;2023-04-12T06:32:23;100000.91;;;11.16;67.75
62779;BME280;48821;48.796;2.396;2023-04-12T06:33:36;99993.84;;;11.16;67.74
62779;BME280;48821;48.796;2.396;2023-04-12T06:34:49;100003.44;;;11.17;68.19
62779;BME280;48821;48.796;2.396;2023-04-12T06:36:02;100001.59;;;11.19;68.09
62779;BME280;48821;48.796;2.396;2023-04-12T06:37:16;100003.31;;;11.20;68.08
62779;BME280;48821;48.796;2.396;2023-04-12T06:38:29;100002.38;;;11.21;67.98
62779;BME280;48821;48.796;2.396;2023-04-12T06:39:42;99997.09;;;11.21;67.95
62779;BME280;48821;48.796;2.396;2023-04-12T06:40:55;99989.22;;;11.21;67.88
62779;BME280;48821;48.796;2.396;2023-04-12T06:42:09;99989.38;;;11.18;67.73